Time;durP1;ratioP1;P1;durP2;ratioP2;P2;SDS_P1;SDS_P2;PMS_P1;PMS_P2;Temp;Humidity;BMP_temperature;BMP_pressure;BME280_temperature;BME280_humidity;BME280_pressure;Samples;Min_cycle;Max_cycle;Signal;HPM_P1;HPM_P2
2022/05/23 00:01:00;;;;;;;;;;;;;;;24.57;58.25;98395.69;2071751;28;19940;-48
2022/05/23 00:02:02;;;;;;;;;;;;;;;24.55;57.94;98395.97;2071738;28;20342;-50
2022/05/23 00:03:04;;;;;;;;;;;;;;;24.55;57.93;98393.25;2072141;28;20477;-51
2022/05/23 00:04:04;;;;;;;;;;;;;;;24.53;58.03;98389.97;2072575;28;19925;-49
2022/05/23 00:05:07;;;;;;;;;;;;;;;24.56;58.28;98397.59;2073768;28;19929;-49
2022/05/23 00:06:07;;;;;;;;;;;;;;;24.55;58.21;98387.81;2072748;28;20016;-48
2022/05/23 00:07:11;;;;;;;;;;;;;;;24.56;57.94;98381.31;2072438;28;19933;-45
2022/05/23 00:08:13;;;;;;;;;;;;;;;24.54;58.04;98386.16;2069712;28;19933;-45
2022/05/23 00:09:14;;;;;;;;;;;;;;;24.54;58.31;98388.88;2072240;28;19929;-49
2022/05/23 00:10:16;;;;;;;;;;;;;;;24.53;58.37;98379.94;2073427;28;19957;-49
2022/05/23 00:11:18;;;;;;;;;;;;;;;24.55;58.15;98382.41;2073088;28;19973;-49
2022/05/23 00:12:22;;;;;;;;;;;;;;;24.53;58.33;98387.25;2074242;28;19996;-50
2022/05/23 00:13:22;;;;;;;;;;;;;;;24.53;58.25;98393.47;2072546;28;19975;-50
2022/05/23 00:14:24;;;;;;;;;;;;;;;24.55;58.18;98395.97;2070225;28;20362;-50
2022/05/23 00:15:24;;;;;;;;;;;;;;;24.56;58.15;98396.78;2072534;28;19952;-50
2022/05/23 00:16:27;;;;;;;;;;;;;;;24.53;58.47;98388.06;2071809;28;19929;-47
2022/05/23 00:17:29;;;;;;;;;;;;;;;24.55;58.47;98389.72;2072275;28;19983;-49
2022/05/23 00:18:31;;;;;;;;;;;;;;;24.55;58.38;98392.44;2071200;28;19975;-49
2022/05/23 00:19:31;;;;;;;;;;;;;;;24.55;58.14;98389.72;2072773;28;20321;-51
2022/05/23 00:20:33;;;;;;;;;;;;;;;24.54;58.53;98386.16;2072658;28;19925;-48
2022/05/23 00:21:33;;;;;;;;;;;;;;;24.55;58.13;98387.00;2071626;28;19929;-50
2022/05/23 00:22:35;;;;;;;;;;;;;;;24.54;58.14;98386.16;2071573;28;19976;-49
2022/05/23 00:23:36;;;;;;;;;;;;;;;24.54;58.45;98380.75;2072398;28;19925;-50
2022/05/23 00:24:37;;;;;;;;;;;;;;;24.54;58.19;98380.75;2072167;28;19929;-50
2022/05/23 00:25:38;;;;;;;;;;;;;;;24.55;58.23;98384.31;2069927;28;20509;-51
2022/05/23 00:26:40;;;;;;;;;;;;;;;24.55;58.27;98387.00;2072648;28;19967;-48
2022/05/23 00:27:43;;;;;;;;;;;;;;;24.55;58.28;98385.13;2071143;28;19969;-51
2022/05/23 00:28:44;;;;;;;;;;;;;;;24.52;58.33;98385.63;2070852;28;20008;-47
2022/05/23 00:29:45;;;;;;;;;;;;;;;24.53;58.22;98379.94;2073007;28;19925;-51
2022/05/23 00:30:46;;;;;;;;;;;;;;;24.53;58.42;98379.09;2071951;28;20315;-48
2022/05/23 00:35:50;;;;;;;;;;;;;;;24.51;58.29;98378.53;2071390;28;20016;-50
2022/05/23 00:36:51;;;;;;;;;;;;;;;24.50;58.44;98379.59;2072633;28;19925;-48
2022/05/23 00:37:53;;;;;;;;;;;;;;;24.50;58.21;98377.72;2071614;28;19931;-47
2022/05/23 00:38:54;;;;;;;;;;;;;;;24.51;58.51;98373.09;2073489;28;19936;-48
2022/05/23 00:39:56;;;;;;;;;;;;;;;24.50;58.35;98377.72;2070037;28;20602;-48
2022/05/23 00:43:36;;;;;;;;;;;;;;;24.50;58.52;98371.47;2072119;28;19929;-48
2022/05/23 00:44:37;;;;;;;;;;;;;;;24.52;58.45;98377.47;2072212;28;19926;-49
2022/05/23 00:45:38;;;;;;;;;;;;;;;24.51;58.46;98370.41;2072701;28;20012;-50
2022/05/23 00:46:48;;;;;;;;;;;;;;;24.49;58.44;98367.94;2072531;28;19967;-49
2022/05/23 00:47:52;;;;;;;;;;;;;;;24.49;58.35;98372.56;2071072;28;19936;-53
2022/05/23 00:48:57;;;;;;;;;;;;;;;24.51;58.42;98367.69;2072548;28;20002;-49
2022/05/23 00:49:59;;;;;;;;;;;;;;;24.49;58.34;98373.38;2071110;28;19937;-51
2022/05/23 00:51:00;;;;;;;;;;;;;;;24.48;58.39;98374.41;2072002;28;20880;-48
2022/05/23 00:52:04;;;;;;;;;;;;;;;24.48;58.28;98371.72;2072522;28;19928;-49
2022/05/23 00:53:06;;;;;;;;;;;;;;;24.50;58.14;98374.19;2072461;28;19933;-45
2022/05/23 00:54:08;;;;;;;;;;;;;;;24.49;58.09;98369.84;2072601;28;19932;-49
2022/05/23 00:55:13;;;;;;;;;;;;;;;24.48;58.07;98363.56;2071104;28;19930;-48
2022/05/23 00:56:15;;;;;;;;;;;;;;;24.49;58.29;98361.72;2072543;28;19944;-51
2022/05/23 00:57:18;;;;;;;;;;;;;;;24.49;58.42;98364.44;2071301;28;19929;-49
2022/05/23 00:58:22;;;;;;;;;;;;;;;24.48;58.45;98366.28;2072469;28;19983;-50
2022/05/23 00:59:26;;;;;;;;;;;;;;;24.48;58.53;98362.75;2070245;28;20302;-47
2022/05/23 01:00:29;;;;;;;;;;;;;;;24.48;58.51;98362.75;2071238;28;19936;-47
2022/05/23 01:01:32;;;;;;;;;;;;;;;24.48;58.30;98368.19;2072136;28;19988;-50
2022/05/23 01:02:35;;;;;;;;;;;;;;;24.50;58.34;98364.16;2072763;28;19932;-48
2022/05/23 01:03:37;;;;;;;;;;;;;;;24.50;58.30;98366.88;2073457;28;19925;-48
2022/05/23 01:04:39;;;;;;;;;;;;;;;24.50;58.46;98366.06;2072660;28;19964;-49
2022/05/23 01:05:41;;;;;;;;;;;;;;;24.49;58.28;98369.84;2071529;28;20519;-47
2022/05/23 01:06:42;;;;;;;;;;;;;;;24.48;58.24;98363.56;2072474;28;19925;-48
2022/05/23 01:07:43;;;;;;;;;;;;;;;24.48;58.20;98366.28;2070886;28;20027;-48
2022/05/23 01:08:46;;;;;;;;;;;;;;;24.48;58.32;98368.19;2071414;28;19929;-49
2022/05/23 01:09:47;;;;;;;;;;;;;;;24.46;58.53;98363.03;2070452;28;19933;-49
2022/05/23 01:10:49;;;;;;;;;;;;;;;24.46;58.30;98356.75;2073207;28;19932;-49
2022/05/23 01:11:50;;;;;;;;;;;;;;;24.47;58.18;98358.41;2071434;28;19929;-50
2022/05/23 01:12:52;;;;;;;;;;;;;;;24.45;58.32;98355.94;2069328;28;20403;-49
2022/05/23 01:13:54;;;;;;;;;;;;;;;24.46;58.47;98364.88;2071611;28;19963;-50
2022/05/23 01:14:56;;;;;;;;;;;;;;;24.47;58.54;98361.94;2071767;28;20627;-48
2022/05/23 01:15:58;;;;;;;;;;;;;;;24.47;58.38;98356.53;2071753;28;20007;-49
2022/05/23 01:16:58;;;;;;;;;;;;;;;24.47;58.41;98350.28;2072291;28;20023;-49
2022/05/23 01:18:00;;;;;;;;;;;;;;;24.47;58.38;98353.00;2066349;28;19933;-51
2022/05/23 01:19:03;;;;;;;;;;;;;;;24.46;58.27;98359.47;2068478;28;19936;-48
2022/05/23 01:20:07;;;;;;;;;;;;;;;24.45;58.49;98353.22;2070674;28;19932;-50
2022/05/23 01:21:13;;;;;;;;;;;;;;;24.45;58.42;98350.53;2072647;28;19968;-48
2022/05/23 01:22:18;;;;;;;;;;;;;;;24.45;58.49;98347.00;2072187;28;21481;-50
2022/05/23 01:23:27;;;;;;;;;;;;;;;24.46;58.48;98351.34;2072150;28;20418;-47
2022/05/23 01:24:30;;;;;;;;;;;;;;;24.44;58.59;98340.75;2068067;28;19929;-49
2022/05/23 01:25:33;;;;;;;;;;;;;;;24.45;58.53;98341.56;2072508;28;19929;-46
2022/05/23 01:26:34;;;;;;;;;;;;;;;24.44;58.65;98335.34;2070391;28;20124;-50
2022/05/23 01:27:37;;;;;;;;;;;;;;;24.45;58.65;98342.38;2072637;28;19937;-48
2022/05/23 01:28:40;;;;;;;;;;;;;;;24.46;58.47;98335.06;2071867;28;20007;-46
2022/05/23 01:29:43;;;;;;;;;;;;;;;24.47;58.46;98339.44;2072232;28;19929;-49
2022/05/23 01:30:45;;;;;;;;;;;;;;;24.46;58.26;98340.50;2068711;28;22023;-46
2022/05/23 01:31:46;;;;;;;;;;;;;;;24.46;58.52;98349.47;2073443;28;20001;-45
2022/05/23 01:32:48;;;;;;;;;;;;;;;24.45;58.50;98345.09;2070723;28;20748;-49
2022/05/23 01:33:48;;;;;;;;;;;;;;;24.44;58.52;98346.19;2073579;28;19960;-48
2022/05/23 01:34:50;;;;;;;;;;;;;;;24.46;58.55;98343.22;2072223;28;20376;-51
2022/05/23 01:35:51;;;;;;;;;;;;;;;24.44;58.58;98346.19;2071009;28;19973;-50
2022/05/23 01:36:52;;;;;;;;;;;;;;;24.43;58.62;98347.25;2072464;28;20360;-48
2022/05/23 01:37:53;;;;;;;;;;;;;;;24.45;58.46;98341.56;2070389;28;19925;-50
2022/05/23 01:38:54;;;;;;;;;;;;;;;24.45;58.51;98336.16;2072938;28;20453;-49
2022/05/23 01:39:55;;;;;;;;;;;;;;;24.44;58.46;98332.63;2073295;28;19944;-51
2022/05/23 01:40:59;;;;;;;;;;;;;;;24.44;58.56;98323.69;2073169;28;20461;-46
2022/05/23 01:41:59;;;;;;;;;;;;;;;24.43;58.42;98322.88;2073959;28;19925;-52
2022/05/23 01:43:01;;;;;;;;;;;;;;;24.45;58.56;98325.31;2071983;28;19972;-49
2022/05/23 01:44:01;;;;;;;;;;;;;;;24.44;58.47;98335.34;2070133;28;19972;-50
2022/05/23 01:45:03;;;;;;;;;;;;;;;24.44;58.47;98329.91;2070210;28;20486;-48
2022/05/23 01:46:04;;;;;;;;;;;;;;;24.43;58.51;98328.28;2071318;28;19968;-49
2022/05/23 01:47:10;;;;;;;;;;;;;;;24.43;58.33;98327.41;2071760;28;19925;-48
2022/05/23 01:48:11;;;;;;;;;;;;;;;24.44;58.34;98335.34;2072077;28;19964;-50
2022/05/23 01:49:12;;;;;;;;;;;;;;;24.43;58.35;98320.16;2068947;28;19965;-49
2022/05/23 01:50:13;;;;;;;;;;;;;;;24.44;58.41;98329.91;2069356;28;19955;-47
2022/05/23 01:51:15;;;;;;;;;;;;;;;24.43;58.62;98327.41;2071772;28;19925;-49
2022/05/23 01:52:15;;;;;;;;;;;;;;;24.43;58.74;98322.00;2071922;28;19940;-48
2022/05/23 01:53:17;;;;;;;;;;;;;;;24.43;59.06;98327.41;2072092;28;19972;-51
2022/05/23 01:54:17;;;;;;;;;;;;;;;24.42;59.03;98320.34;2071013;28;19932;-50
2022/05/23 01:55:19;;;;;;;;;;;;;;;24.42;58.73;98325.78;2071998;28;23248;-47
2022/05/23 01:56:21;;;;;;;;;;;;;;;24.43;58.59;98327.41;2072328;28;20338;-49
2022/05/23 01:57:23;;;;;;;;;;;;;;;24.42;58.73;98318.47;2071268;28;20363;-46
2022/05/23 02:01:14;;;;;;;;;;;;;;;24.43;58.74;98309.31;2071839;28;19925;-47
2022/05/23 02:02:15;;;;;;;;;;;;;;;24.43;58.48;98309.31;2072206;28;19979;-50
2022/05/23 02:03:17;;;;;;;;;;;;;;;24.44;58.67;98315.56;2071628;28;19988;-47
2022/05/23 02:04:17;;;;;;;;;;;;;;;24.41;58.46;98313.31;2071894;28;20279;-48
2022/05/23 02:05:19;;;;;;;;;;;;;;;24.42;58.36;98314.94;2070377;28;19940;-46
2022/05/23 02:06:20;;;;;;;;;;;;;;;24.44;58.48;98318.25;2072684;28;19936;-46
2022/05/23 02:07:21;;;;;;;;;;;;;;;24.43;58.42;98313.84;2071198;28;19929;-51
2022/05/23 02:08:22;;;;;;;;;;;;;;;24.44;58.56;98307.41;2071981;28;19925;-50
2022/05/23 02:09:27;;;;;;;;;;;;;;;24.43;58.34;98306.59;2072233;28;20028;-51
2022/05/23 02:10:28;;;;;;;;;;;;;;;24.41;58.50;98297.84;2069796;28;19925;-49
2022/05/23 02:11:31;;;;;;;;;;;;;;;24.41;58.33;98297.03;2072944;28;20950;-45
2022/05/23 02:12:31;;;;;;;;;;;;;;;24.44;58.48;98307.41;2069921;28;19937;-50
2022/05/23 02:13:34;;;;;;;;;;;;;;;24.43;58.46;98300.31;2071610;28;19929;-47
2022/05/23 02:14:35;;;;;;;;;;;;;;;24.40;58.45;98298.91;2073262;28;20338;-48
2022/05/23 02:15:36;;;;;;;;;;;;;;;24.41;58.48;98297.84;2073304;28;19929;-49
2022/05/23 02:16:37;;;;;;;;;;;;;;;24.41;58.44;98300.56;2072609;28;20682;-47
2022/05/23 02:17:39;;;;;;;;;;;;;;;24.42;58.38;98299.50;2071693;28;19937;-46
2022/05/23 02:18:40;;;;;;;;;;;;;;;24.42;58.61;98296.78;2067891;28;19971;-50
2022/05/23 02:19:41;;;;;;;;;;;;;;;24.41;58.45;98292.44;2072579;28;20275;-50
2022/05/23 02:20:42;;;;;;;;;;;;;;;24.42;58.74;98287.84;2073050;28;19936;-50
2022/05/23 02:21:44;;;;;;;;;;;;;;;24.41;58.75;98283.50;2071739;28;20041;-49
2022/05/23 02:22:44;;;;;;;;;;;;;;;24.42;58.54;98277.00;2069842;28;19929;-49
2022/05/23 02:23:46;;;;;;;;;;;;;;;24.40;58.75;98279.13;2072083;28;19925;-46
2022/05/23 02:24:47;;;;;;;;;;;;;;;24.42;58.51;98282.41;2071860;28;19963;-50
2022/05/23 02:25:48;;;;;;;;;;;;;;;24.42;58.52;98282.41;2071171;28;20007;-49
2022/05/23 02:26:50;;;;;;;;;;;;;;;24.41;58.53;98287.00;2070404;28;19925;-47
2022/05/23 02:27:52;;;;;;;;;;;;;;;24.39;58.56;98277.50;2072509;28;19929;-49
2022/05/23 02:28:53;;;;;;;;;;;;;;;24.40;58.36;98274.50;2069435;28;20430;-49
2022/05/23 02:29:54;;;;;;;;;;;;;;;24.42;58.56;98277.81;2071644;28;19987;-48
2022/05/23 02:30:55;;;;;;;;;;;;;;;24.41;58.59;98269.94;2073254;28;19929;-49
2022/05/23 02:31:56;;;;;;;;;;;;;;;24.41;58.70;98273.47;2070353;28;19976;-47
2022/05/23 02:32:57;;;;;;;;;;;;;;;24.42;58.87;98271.56;2072982;28;20920;-49
2022/05/23 02:33:58;;;;;;;;;;;;;;;24.41;58.83;98275.34;2071600;28;19965;-46
2022/05/23 02:34:59;;;;;;;;;;;;;;;24.41;58.48;98272.66;2072682;28;19925;-48
2022/05/23 02:36:00;;;;;;;;;;;;;;;24.38;58.61;98265.84;2071603;28;19929;-46
2022/05/23 02:37:02;;;;;;;;;;;;;;;24.40;58.66;98268.28;2069584;28;19934;-48
2022/05/23 02:38:02;;;;;;;;;;;;;;;24.39;58.69;98269.34;2071560;28;20599;-46
2022/05/23 02:39:04;;;;;;;;;;;;;;;24.39;58.59;98266.66;2070463;28;19936;-48
2022/05/23 02:40:05;;;;;;;;;;;;;;;24.40;58.66;98268.28;2071684;28;19929;-48
2022/05/23 02:41:07;;;;;;;;;;;;;;;24.40;58.63;98271.00;2071562;28;19925;-49
2022/05/23 02:42:09;;;;;;;;;;;;;;;24.40;58.69;98263.66;2069960;28;19932;-51
2022/05/23 02:43:11;;;;;;;;;;;;;;;24.40;58.59;98258.25;2070840;28;20241;-46
2022/05/23 02:44:12;;;;;;;;;;;;;;;24.40;58.59;98263.66;2073392;28;19929;-47
2022/05/23 02:45:13;;;;;;;;;;;;;;;24.38;58.94;98260.41;2072780;28;20269;-47
2022/05/23 02:46:14;;;;;;;;;;;;;;;24.38;58.96;98252.28;2072845;28;19933;-52
2022/05/23 02:47:15;;;;;;;;;;;;;;;24.38;58.89;98256.88;2071326;28;20971;-48
2022/05/23 02:48:16;;;;;;;;;;;;;;;24.37;58.86;98252.53;2070111;28;19933;-52
2022/05/23 02:49:18;;;;;;;;;;;;;;;24.38;58.81;98256.88;2069539;28;19929;-51
2022/05/23 02:50:18;;;;;;;;;;;;;;;24.38;58.53;98254.19;2071363;28;19933;-49
2022/05/23 02:51:20;;;;;;;;;;;;;;;24.37;58.54;98253.34;2070876;28;20048;-49
2022/05/23 02:52:20;;;;;;;;;;;;;;;24.38;58.77;98246.03;2070650;28;20382;-48
2022/05/23 02:53:22;;;;;;;;;;;;;;;24.40;58.53;98246.59;2071131;28;19928;-45
2022/05/23 02:54:22;;;;;;;;;;;;;;;24.37;58.47;98239.78;2069250;28;19930;-49
2022/05/23 02:55:24;;;;;;;;;;;;;;;24.38;58.67;98244.16;2070912;28;19945;-52
2022/05/23 02:56:25;;;;;;;;;;;;;;;24.37;58.54;98245.19;2069076;28;20419;-49
2022/05/23 02:57:28;;;;;;;;;;;;;;;24.37;58.55;98237.06;2069207;28;20017;-49
2022/05/23 02:58:28;;;;;;;;;;;;;;;24.37;58.52;98242.50;2066977;28;19925;-48
2022/05/23 02:59:30;;;;;;;;;;;;;;;24.37;58.61;98238.97;2070955;28;19929;-49
2022/05/23 03:00:30;;;;;;;;;;;;;;;24.38;58.57;98237.91;2068591;28;20027;-46
2022/05/23 03:01:32;;;;;;;;;;;;;;;24.38;58.32;98238.72;2071333;28;20517;-48
2022/05/23 03:03:54;;;;;;;;;;;;;;;24.36;58.56;98240.84;2068255;28;20399;-48
2022/05/23 03:04:55;;;;;;;;;;;;;;;24.37;58.76;98247.09;2068176;28;19925;-48
2022/05/23 03:05:57;;;;;;;;;;;;;;;24.36;58.41;98243.56;2071181;28;20948;-46
2022/05/23 03:06:58;;;;;;;;;;;;;;;24.38;58.60;98241.44;2068194;28;20027;-47
2022/05/23 03:07:59;;;;;;;;;;;;;;;24.37;58.65;98238.97;2070694;28;20833;-47
2022/05/23 03:09:00;;;;;;;;;;;;;;;24.38;58.55;98241.44;2067759;28;19969;-47
2022/05/23 03:10:02;;;;;;;;;;;;;;;24.38;58.54;98241.44;2071744;28;19925;-48
2022/05/23 03:11:03;;;;;;;;;;;;;;;24.39;58.64;98239.53;2066632;28;19972;-46
2022/05/23 03:12:05;;;;;;;;;;;;;;;24.37;58.57;98238.97;2070927;28;20088;-47
2022/05/23 03:13:07;;;;;;;;;;;;;;;24.34;58.27;98237.56;2070358;28;19957;-47
2022/05/23 03:14:09;;;;;;;;;;;;;;;24.33;58.33;98229.72;2069162;28;20419;-47
2022/05/23 03:15:10;;;;;;;;;;;;;;;24.35;58.40;98239.22;2067393;28;20530;-47
2022/05/23 03:16:12;;;;;;;;;;;;;;;24.35;58.20;98232.97;2071625;28;19999;-47
2022/05/23 03:17:13;;;;;;;;;;;;;;;24.34;58.33;98231.34;2067759;28;19972;-47
2022/05/23 03:18:15;;;;;;;;;;;;;;;24.36;58.09;98227.31;2069085;28;19933;-47
2022/05/23 03:19:15;;;;;;;;;;;;;;;24.35;58.38;98231.09;2066054;28;19975;-46
2022/05/23 03:20:17;;;;;;;;;;;;;;;24.36;58.40;98227.31;2069991;28;19936;-49
2022/05/23 03:27:51;;;;;;;;;;;;;;;24.33;58.07;98221.59;2066659;28;19934;-47
2022/05/23 03:28:53;;;;;;;;;;;;;;;24.34;58.19;98218.59;2070181;28;19936;-47
2022/05/23 03:29:55;;;;;;;;;;;;;;;24.32;58.07;98226.16;2070324;28;20530;-46
2022/05/23 03:30:55;;;;;;;;;;;;;;;24.32;58.02;98220.72;2068494;28;19925;-49
2022/05/23 03:31:57;;;;;;;;;;;;;;;24.33;58.44;98229.72;2070783;28;20562;-48
2022/05/23 03:32:58;;;;;;;;;;;;;;;24.33;58.13;98232.41;2069886;28;19936;-46
2022/05/23 03:34:00;;;;;;;;;;;;;;;24.31;58.44;98228.06;2069793;28;20410;-48
2022/05/23 03:35:00;;;;;;;;;;;;;;;24.30;58.37;98231.03;2069563;28;19925;-46
2022/05/23 03:36:02;;;;;;;;;;;;;;;24.30;58.52;98228.31;2070063;28;19968;-47
2022/05/23 03:37:04;;;;;;;;;;;;;;;24.29;58.65;98230.22;2067586;28;19925;-48
2022/05/23 03:38:06;;;;;;;;;;;;;;;24.31;58.43;98233.47;2069745;28;19972;-48
2022/05/23 03:39:07;;;;;;;;;;;;;;;24.33;58.12;98224.28;2067870;28;20304;-46
2022/05/23 03:40:09;;;;;;;;;;;;;;;24.33;58.37;98235.13;2065521;28;19937;-46
2022/05/23 03:41:10;;;;;;;;;;;;;;;24.32;58.16;98228.88;2069303;28;19975;-47
2022/05/23 03:42:11;;;;;;;;;;;;;;;24.31;58.45;98227.25;2069431;28;20012;-48
2022/05/23 03:43:14;;;;;;;;;;;;;;;24.30;58.22;98225.59;2068472;28;19925;-47
2022/05/23 03:44:16;;;;;;;;;;;;;;;24.31;58.23;98227.25;2070094;28;20477;-47
2022/05/23 03:45:17;;;;;;;;;;;;;;;24.29;58.23;98218.53;2070719;28;19933;-48
2022/05/23 03:46:19;;;;;;;;;;;;;;;24.30;58.36;98221.00;2071656;28;19957;-47
2022/05/23 03:47:19;;;;;;;;;;;;;;;24.28;58.46;98215.00;2070577;28;19972;-47
2022/05/23 03:48:21;;;;;;;;;;;;;;;24.30;58.11;98215.59;2069511;28;19932;-49
2022/05/23 03:49:22;;;;;;;;;;;;;;;24.29;58.31;98219.38;2072747;28;19960;-46
2022/05/23 03:50:25;;;;;;;;;;;;;;;24.28;58.16;98220.41;2069483;28;19930;-47
2022/05/23 03:51:25;;;;;;;;;;;;;;;24.28;58.45;98223.13;2070765;28;19925;-48
2022/05/23 03:52:27;;;;;;;;;;;;;;;24.29;58.25;98224.78;2066235;28;19929;-49
2022/05/23 03:53:28;;;;;;;;;;;;;;;24.29;58.46;98227.50;2068613;28;20338;-47
2022/05/23 03:54:29;;;;;;;;;;;;;;;24.30;58.28;98228.31;2070030;28;19980;-50
2022/05/23 03:55:30;;;;;;;;;;;;;;;24.29;58.10;98230.22;2068365;28;19929;-49
2022/05/23 03:56:32;;;;;;;;;;;;;;;24.28;58.21;98220.41;2067510;28;20012;-46
2022/05/23 03:57:33;;;;;;;;;;;;;;;24.31;58.22;98228.06;2069710;28;19937;-47
2022/05/23 03:58:35;;;;;;;;;;;;;;;24.28;58.21;98223.13;2069285;28;19968;-46
2022/05/23 03:59:38;;;;;;;;;;;;;;;24.30;58.07;98225.59;2068902;28;19944;-46
2022/05/23 04:00:38;;;;;;;;;;;;;;;24.29;58.52;98222.09;2069945;28;19929;-48
2022/05/23 04:01:40;;;;;;;;;;;;;;;24.29;58.17;98219.38;2068180;28;19979;-47
2022/05/23 04:02:41;;;;;;;;;;;;;;;24.30;58.06;98226.41;2068194;28;20398;-47
2022/05/23 04:03:42;;;;;;;;;;;;;;;24.30;58.59;98226.41;2069478;28;20722;-47
2022/05/23 04:04:44;;;;;;;;;;;;;;;24.30;58.30;98217.47;2068872;28;20083;-47
2022/05/23 04:05:45;;;;;;;;;;;;;;;24.30;58.17;98220.19;2070410;28;19929;-47
2022/05/23 04:06:47;;;;;;;;;;;;;;;24.29;58.26;98219.38;2071111;28;20008;-47
2022/05/23 04:07:47;;;;;;;;;;;;;;;24.30;58.28;98223.72;2070210;28;20847;-47
2022/05/23 04:08:49;;;;;;;;;;;;;;;24.29;58.09;98216.66;2068700;28;19929;-46
2022/05/23 04:09:49;;;;;;;;;;;;;;;24.29;58.12;98219.38;2067461;28;19982;-49
2022/05/23 04:10:51;;;;;;;;;;;;;;;24.28;58.13;98220.41;2067049;28;20876;-47
2022/05/23 04:11:53;;;;;;;;;;;;;;;24.27;57.95;98221.50;2066664;28;20414;-47
2022/05/23 04:12:53;;;;;;;;;;;;;;;24.28;58.27;98222.31;2069060;28;19936;-47
2022/05/23 04:13:55;;;;;;;;;;;;;;;24.28;58.30;98225.84;2068333;28;19929;-48
2022/05/23 04:14:57;;;;;;;;;;;;;;;24.28;58.24;98228.56;2068045;28;19932;-48
2022/05/23 04:15:58;;;;;;;;;;;;;;;24.28;58.36;98220.41;2069745;28;20043;-47
2022/05/23 04:16:59;;;;;;;;;;;;;;;24.27;58.23;98221.50;2070030;28;19925;-48
2022/05/23 04:18:00;;;;;;;;;;;;;;;24.27;58.27;98224.22;2070490;28;20020;-47
2022/05/23 04:19:02;;;;;;;;;;;;;;;24.28;58.11;98225.03;2071162;28;20299;-47
2022/05/23 04:20:05;;;;;;;;;;;;;;;24.27;58.27;98224.22;2070101;28;20555;-47
2022/05/23 04:21:05;;;;;;;;;;;;;;;24.25;58.17;98220.94;2069520;28;19925;-47
2022/05/23 04:22:07;;;;;;;;;;;;;;;24.24;58.13;98221.19;2069895;28;19925;-48
2022/05/23 04:23:09;;;;;;;;;;;;;;;24.26;58.19;98227.97;2068217;28;19929;-46
2022/05/23 04:24:10;;;;;;;;;;;;;;;24.24;58.45;98227.44;2071965;28;19940;-47
2022/05/23 04:25:12;;;;;;;;;;;;;;;24.25;58.45;98225.53;2070306;28;19933;-47
2022/05/23 04:26:13;;;;;;;;;;;;;;;24.23;58.61;98227.66;2070784;28;20351;-47
2022/05/23 04:27:14;;;;;;;;;;;;;;;24.23;58.22;98236.59;2070562;28;19936;-48
2022/05/23 04:28:16;;;;;;;;;;;;;;;24.23;58.83;98224.97;2068631;28;20430;-51
2022/05/23 04:29:17;;;;;;;;;;;;;;;24.22;57.99;98224.16;2068330;28;20009;-48
2022/05/23 04:30:20;;;;;;;;;;;;;;;24.24;58.46;98230.13;2070380;28;19972;-47
2022/05/23 04:31:21;;;;;;;;;;;;;;;24.21;58.51;98230.66;2071343;28;19963;-48
2022/05/23 04:35:16;;;;;;;;;;;;;;;24.24;58.43;98232.84;2069621;28;20473;-48
2022/05/23 04:36:16;;;;;;;;;;;;;;;24.22;58.62;98232.28;2070712;28;19929;-50
2022/05/23 04:37:18;;;;;;;;;;;;;;;24.22;58.91;98234.16;2071214;28;20281;-47
2022/05/23 04:38:19;;;;;;;;;;;;;;;24.24;58.65;98235.56;2069221;28;19926;-47
2022/05/23 04:39:20;;;;;;;;;;;;;;;24.25;58.41;98229.06;2069023;28;19976;-50
2022/05/23 04:40:22;;;;;;;;;;;;;;;24.25;58.74;98234.47;2072768;28;19940;-47
2022/05/23 04:41:24;;;;;;;;;;;;;;;24.22;58.62;98234.97;2068752;28;19925;-47
2022/05/23 04:42:25;;;;;;;;;;;;;;;24.24;58.49;98232.03;2068053;28;19925;-49
2022/05/23 04:43:27;;;;;;;;;;;;;;;24.23;58.94;98233.91;2070307;28;19925;-49
2022/05/23 04:44:27;;;;;;;;;;;;;;;24.23;58.98;98225.78;2070689;28;19948;-49
2022/05/23 04:45:31;;;;;;;;;;;;;;;24.23;58.98;98223.06;2071096;28;20392;-49
2022/05/23 04:46:31;;;;;;;;;;;;;;;24.24;58.65;98227.44;2070607;28;20028;-50
2022/05/23 04:50:11;;;;;;;;;;;;;;;24.23;59.51;98222.25;2072351;28;20585;-51
2022/05/23 04:51:11;;;;;;;;;;;;;;;24.23;59.18;98224.97;2070193;28;19960;-49
2022/05/23 04:52:14;;;;;;;;;;;;;;;24.22;59.58;98226.84;2071681;28;19937;-48
2022/05/23 04:53:14;;;;;;;;;;;;;;;24.22;59.54;98223.31;2071386;28;19976;-48
2022/05/23 04:54:16;;;;;;;;;;;;;;;24.22;59.49;98232.28;2073802;28;19929;-47
2022/05/23 04:55:17;;;;;;;;;;;;;;;24.23;58.84;98230.38;2072865;28;20438;-47
2022/05/23 04:56:19;;;;;;;;;;;;;;;24.22;59.18;98232.28;2073476;28;20470;-47
2022/05/23 04:57:20;;;;;;;;;;;;;;;24.22;59.31;98229.56;2072787;28;19929;-48
2022/05/23 04:58:21;;;;;;;;;;;;;;;24.21;59.58;98232.50;2073165;28;19975;-47
2022/05/23 04:59:22;;;;;;;;;;;;;;;24.20;59.74;98228.16;2071092;28;20542;-51
2022/05/23 05:00:24;;;;;;;;;;;;;;;24.21;59.38;98233.34;2072830;28;19967;-54
2022/05/23 05:01:27;;;;;;;;;;;;;;;24.20;59.34;98230.88;2070863;28;19990;-48
2022/05/23 05:02:28;;;;;;;;;;;;;;;24.21;59.42;98233.34;2070878;28;19936;-48
2022/05/23 05:03:29;;;;;;;;;;;;;;;24.20;59.47;98230.88;2070554;28;19975;-50
2022/05/23 05:04:31;;;;;;;;;;;;;;;24.20;59.86;98230.88;2071841;28;19971;-47
2022/05/23 05:05:33;;;;;;;;;;;;;;;24.20;59.42;98226.28;2071652;28;20199;-47
2022/05/23 05:06:34;;;;;;;;;;;;;;;24.21;59.70;98230.66;2072370;28;20000;-47
2022/05/23 05:07:35;;;;;;;;;;;;;;;24.20;59.41;98236.31;2069464;28;20694;-49
2022/05/23 05:08:36;;;;;;;;;;;;;;;24.20;59.12;98234.41;2072207;28;19925;-49
2022/05/23 05:09:37;;;;;;;;;;;;;;;24.21;59.57;98233.34;2071321;28;19939;-47
2022/05/23 05:10:39;;;;;;;;;;;;;;;24.18;59.46;98236.56;2072227;28;19926;-48
2022/05/23 05:11:39;;;;;;;;;;;;;;;24.20;59.13;98230.88;2070709;28;19933;-47
2022/05/23 05:12:41;;;;;;;;;;;;;;;24.17;59.78;98226.78;2072217;28;19933;-49
2022/05/23 05:13:43;;;;;;;;;;;;;;;24.18;59.49;98231.16;2071296;28;19929;-47
2022/05/23 05:14:44;;;;;;;;;;;;;;;24.17;59.76;98225.97;2071989;28;19933;-49
2022/05/23 05:15:45;;;;;;;;;;;;;;;24.18;59.74;98228.44;2071157;28;19999;-49
2022/05/23 05:16:48;;;;;;;;;;;;;;;24.15;59.37;98225.38;2071430;28;19936;-47
2022/05/23 05:17:49;;;;;;;;;;;;;;;24.16;59.66;98230.56;2070301;28;19984;-49
2022/05/23 05:18:51;;;;;;;;;;;;;;;24.15;59.71;98234.31;2065949;28;20307;-49
2022/05/23 05:19:51;;;;;;;;;;;;;;;24.16;59.70;98232.47;2069706;28;19925;-47
2022/05/23 05:20:53;;;;;;;;;;;;;;;24.15;59.66;98231.63;2073075;28;19968;-48
2022/05/23 05:21:54;;;;;;;;;;;;;;;24.15;59.99;98228.09;2071633;28;20470;-47
2022/05/23 05:22:55;;;;;;;;;;;;;;;24.14;59.65;98235.41;2072459;28;19941;-48
2022/05/23 05:23:56;;;;;;;;;;;;;;;24.16;59.72;98240.59;2071779;28;20591;-47
2022/05/23 05:24:58;;;;;;;;;;;;;;;24.16;59.28;98227.84;2071165;28;19925;-48
2022/05/23 05:25:58;;;;;;;;;;;;;;;24.14;59.84;98230.00;2071178;28;19925;-48
2022/05/23 05:27:00;;;;;;;;;;;;;;;24.14;59.78;98230.00;2072349;28;20012;-47
2022/05/23 05:28:00;;;;;;;;;;;;;;;24.14;59.85;98230.00;2069264;28;19941;-49
2022/05/23 05:29:02;;;;;;;;;;;;;;;24.13;59.95;98222.94;2069680;28;19972;-47
2022/05/23 05:30:04;;;;;;;;;;;;;;;24.13;59.73;98231.06;2071548;28;19929;-48
2022/05/23 05:31:10;;;;;;;;;;;;;;;24.15;59.60;98228.09;2071395;28;20410;-49
2022/05/23 05:32:14;;;;;;;;;;;;;;;24.13;59.88;98227.53;2071074;28;19933;-50
2022/05/23 05:33:16;;;;;;;;;;;;;;;24.14;59.88;98232.69;2070718;28;19949;-48
2022/05/23 05:34:22;;;;;;;;;;;;;;;24.13;59.78;98225.66;2071979;28;19957;-49
2022/05/23 05:35:27;;;;;;;;;;;;;;;24.16;59.98;98235.19;2070504;28;19975;-51
2022/05/23 05:36:31;;;;;;;;;;;;;;;24.15;59.78;98228.91;2069605;28;19925;-51
2022/05/23 05:37:34;;;;;;;;;;;;;;;24.14;59.80;98223.75;2071506;28;19979;-48
2022/05/23 05:38:38;;;;;;;;;;;;;;;24.14;59.71;98223.75;2071441;28;20015;-49
2022/05/23 05:39:39;;;;;;;;;;;;;;;24.12;59.93;98228.59;2070771;28;20656;-50
2022/05/23 05:40:43;;;;;;;;;;;;;;;24.11;59.90;98219.66;2072432;28;19991;-49
2022/05/23 05:41:48;;;;;;;;;;;;;;;24.11;60.04;98225.06;2072352;28;19932;-50
2022/05/23 05:42:50;;;;;;;;;;;;;;;24.12;59.73;98224.00;2072824;28;19933;-51
2022/05/23 05:43:56;;;;;;;;;;;;;;;24.12;59.80;98224.00;2072708;28;20399;-50
2022/05/23 05:44:59;;;;;;;;;;;;;;;24.13;60.00;98222.13;2069069;28;19929;-50